Time;durP1;ratioP1;P1;durP2;ratioP2;P2;SDS_P1;SDS_P2;PMS_P1;PMS_P2;Temp;Humidity;BMP_temperature;BMP_pressure;BME280_temperature;BME280_humidity;BME280_pressure;Samples;Min_cycle;Max_cycle;Signal;HPM_P1;HPM_P2
2023/02/24 00:00:32;;;;;;;18.57;11.33;;;5.50;99.90;;;;;;5078953;28;20508;-63
2023/02/24 00:03:05;;;;;;;25.50;12.80;;;5.30;99.90;;;;;;5079453;28;20469;-63
2023/02/24 00:05:41;;;;;;;24.07;12.87;;;5.30;99.90;;;;;;5078822;28;20489;-63
2023/02/24 00:08:08;;;;;;;26.27;14.50;;;5.30;99.90;;;;;;5079112;28;20518;-63
2023/02/24 00:10:36;;;;;;;33.07;16.93;;;5.30;99.90;;;;;;5078808;28;20468;-63
2023/02/24 00:13:03;;;;;;;28.23;14.40;;;5.20;99.90;;;;;;5079473;28;20759;-63
2023/02/24 00:15:30;;;;;;;30.00;15.23;;;5.10;99.90;;;;;;5079221;28;20461;-63
2023/02/24 00:17:58;;;;;;;34.10;14.90;;;5.10;99.90;;;;;;5078770;28;20568;-63
2023/02/24 00:20:27;;;;;;;31.27;15.77;;;5.10;99.90;;;;;;5078782;28;20482;-63
2023/02/24 00:22:54;;;;;;;35.23;15.67;;;5.10;99.90;;;;;;5078605;28;20523;-63
2023/02/24 00:25:22;;;;;;;28.23;14.37;;;5.00;99.90;;;;;;5078675;28;20867;-63
2023/02/24 00:27:49;;;;;;;34.17;15.50;;;5.00;99.90;;;;;;5078773;28;20519;-63
2023/02/24 00:30:17;;;;;;;39.10;15.70;;;5.00;99.90;;;;;;5078502;28;20551;-63
2023/02/24 00:32:44;;;;;;;30.90;14.27;;;5.10;99.90;;;;;;5078570;28;20461;-63
2023/02/24 00:35:11;;;;;;;33.53;14.20;;;5.10;99.90;;;;;;5078696;28;20499;-63
2023/02/24 00:37:40;;;;;;;32.10;13.57;;;5.10;99.90;;;;;;5078195;28;20469;-63
2023/02/24 00:40:10;;;;;;;36.37;12.43;;;4.90;99.90;;;;;;5078470;28;20936;-63
2023/02/24 00:42:41;;;;;;;34.03;13.23;;;4.90;99.90;;;;;;5078631;28;20444;-62
2023/02/24 00:45:10;;;;;;;34.60;13.77;;;4.90;99.90;;;;;;5077782;28;20479;-63
2023/02/24 00:47:39;;;;;;;35.30;12.00;;;4.90;99.90;;;;;;5077902;28;20469;-62
2023/02/24 00:50:08;;;;;;;31.43;11.20;;;5.00;99.90;;;;;;5078037;28;20462;-62
2023/02/24 00:52:36;;;;;;;29.93;11.57;;;4.80;99.90;;;;;;5077826;28;20461;-63
2023/02/24 00:55:12;;;;;;;21.93;10.80;;;4.70;99.90;;;;;;5078710;28;20941;-63
2023/02/24 00:57:40;;;;;;;23.87;11.73;;;4.60;99.90;;;;;;5078466;28;20755;-62
2023/02/24 01:00:13;;;;;;;26.60;11.43;;;4.60;99.90;;;;;;5078340;28;20466;-62
2023/02/24 01:02:43;;;;;;;26.37;13.23;;;4.60;99.90;;;;;;5078618;28;20875;-63
2023/02/24 01:05:11;;;;;;;19.03;10.30;;;4.60;99.90;;;;;;5077890;28;20553;-63
2023/02/24 01:07:39;;;;;;;36.03;11.47;;;4.60;99.90;;;;;;5077387;28;20461;-62
2023/02/24 01:10:11;;;;;;;28.70;12.50;;;4.70;99.90;;;;;;5077957;28;20463;-62
2023/02/24 01:12:37;;;;;;;28.33;13.13;;;4.70;99.90;;;;;;5078305;28;20793;-62
2023/02/24 01:15:07;;;;;;;27.03;12.70;;;4.60;99.90;;;;;;5078262;28;20688;-62
2023/02/24 01:17:36;;;;;;;33.23;12.60;;;4.60;99.90;;;;;;5078154;28;20436;-62
2023/02/24 01:20:14;;;;;;;35.73;12.80;;;4.70;99.90;;;;;;5078118;28;20980;-62
2023/02/24 01:22:42;;;;;;;24.80;13.90;;;4.70;99.90;;;;;;5078196;28;20966;-62
2023/02/24 01:25:11;;;;;;;31.90;13.97;;;4.60;99.90;;;;;;5078769;28;20457;-62
2023/02/24 01:27:39;;;;;;;29.83;13.03;;;4.60;99.90;;;;;;5077825;28;20466;-62
2023/02/24 01:30:12;;;;;;;36.27;12.87;;;4.60;99.90;;;;;;5077914;28;20955;-62
2023/02/24 01:32:40;;;;;;;28.60;13.50;;;4.60;99.90;;;;;;5077742;28;20465;-62
2023/02/24 01:35:08;;;;;;;30.50;13.63;;;4.60;99.90;;;;;;5078217;28;20547;-62
2023/02/24 01:37:35;;;;;;;31.27;14.40;;;4.60;99.90;;;;;;5077417;28;20445;-62
2023/02/24 01:40:10;;;;;;;31.73;15.87;;;4.60;99.90;;;;;;5077395;28;20472;-62
2023/02/24 01:42:41;;;;;;;37.87;15.67;;;4.50;99.90;;;;;;5077828;28;20436;-62
2023/02/24 01:45:20;;;;;;;31.57;16.67;;;4.50;99.90;;;;;;5077941;28;20457;-62
2023/02/24 01:47:48;;;;;;;33.33;17.73;;;4.50;99.90;;;;;;5076664;28;20548;-62
2023/02/24 01:50:20;;;;;;;37.90;18.90;;;4.40;99.90;;;;;;5076565;28;20445;-62
2023/02/24 01:52:49;;;;;;;33.40;19.93;;;4.40;99.90;;;;;;5077621;28;20469;-62
2023/02/24 01:55:22;;;;;;;35.97;18.60;;;4.40;99.90;;;;;;5077241;28;20485;-62
2023/02/24 01:57:54;;;;;;;42.07;21.10;;;4.40;99.90;;;;;;5076355;28;20511;-62
2023/02/24 02:00:36;;;;;;;43.90;20.67;;;4.40;99.90;;;;;;5076741;28;20552;-62
2023/02/24 02:03:14;;;;;;;32.73;18.93;;;4.30;99.90;;;;;;5077070;28;20472;-62
2023/02/24 02:05:44;;;;;;;37.73;18.53;;;4.30;99.90;;;;;;5077184;28;20515;-62
2023/02/24 02:08:11;;;;;;;36.00;20.07;;;4.30;99.90;;;;;;5076348;28;20458;-62
2023/02/24 02:10:43;;;;;;;34.70;21.40;;;4.40;99.90;;;;;;5077722;28;20481;-62
2023/02/24 02:13:13;;;;;;;35.90;20.40;;;4.40;99.90;;;;;;5076297;28;20469;-62
2023/02/24 02:15:52;;;;;;;39.67;20.17;;;4.40;99.90;;;;;;5076763;28;20468;-62
2023/02/24 02:18:31;;;;;;;40.90;19.90;;;4.30;99.90;;;;;;5076774;28;20446;-62
2023/02/24 02:21:20;;;;;;;34.47;18.33;;;4.30;99.90;;;;;;5077426;28;20471;-62
2023/02/24 02:23:59;;;;;;;33.50;20.10;;;4.30;99.90;;;;;;5076871;28;20901;-62
2023/02/24 02:26:53;;;;;;;46.07;22.90;;;4.30;99.90;;;;;;5077414;28;20461;-62
2023/02/24 02:29:46;;;;;;;35.13;20.03;;;4.20;99.90;;;;;;5076549;28;20457;-62
2023/02/24 02:32:50;;;;;;;32.83;19.93;;;4.30;99.90;;;;;;5076885;28;20436;-62
2023/02/24 02:35:22;;;;;;;37.03;20.40;;;4.10;99.90;;;;;;5059861;28;20570;-62
2023/02/24 02:37:55;;;;;;;40.10;20.90;;;4.10;99.90;;;;;;5077024;28;20468;-62
2023/02/24 02:40:29;;;;;;;32.40;19.50;;;4.20;99.90;;;;;;5076561;28;20473;-62
2023/02/24 02:43:07;;;;;;;30.83;18.03;;;4.10;99.90;;;;;;5077306;28;20518;-62
2023/02/24 02:45:40;;;;;;;33.00;17.53;;;4.10;99.90;;;;;;5077858;28;20457;-62
2023/02/24 02:48:14;;;;;;;40.10;16.27;;;4.10;99.90;;;;;;5078054;28;20564;-62
2023/02/24 02:50:48;;;;;;;34.93;15.30;;;4.10;99.90;;;;;;5076431;28;20466;-62
2023/02/24 02:53:23;;;;;;;28.13;15.67;;;4.10;99.90;;;;;;5057281;28;20873;-62
2023/02/24 02:55:55;;;;;;;25.03;14.00;;;4.10;99.90;;;;;;5060163;28;20978;-62
2023/02/24 02:58:29;;;;;;;25.33;12.80;;;4.00;99.90;;;;;;5061186;28;20443;-62
2023/02/24 03:01:01;;;;;;;20.60;12.93;;;3.90;99.90;;;;;;5059627;28;20503;-61
2023/02/24 03:03:31;;;;;;;29.33;14.43;;;3.90;99.90;;;;;;5060882;28;20511;-62
2023/02/24 03:06:05;;;;;;;24.43;12.43;;;3.90;99.90;;;;;;5060662;28;20477;-62
2023/02/24 03:08:37;;;;;;;34.47;12.90;;;3.80;99.90;;;;;;5061114;28;20556;-62
2023/02/24 03:11:05;;;;;;;23.40;9.60;;;3.80;99.90;;;;;;5061036;28;20466;-62
2023/02/24 03:13:37;;;;;;;15.73;8.70;;;3.70;99.90;;;;;;5060825;28;20823;-62
2023/02/24 03:16:06;;;;;;;22.07;8.97;;;3.60;99.90;;;;;;5060269;28;20874;-62
2023/02/24 03:18:37;;;;;;;25.20;9.37;;;3.60;99.90;;;;;;5060646;28;20462;-62
2023/02/24 03:21:08;;;;;;;19.77;9.73;;;3.60;99.90;;;;;;5060497;28;20761;-62
2023/02/24 03:23:39;;;;;;;20.07;9.20;;;3.50;99.90;;;;;;5060408;28;20889;-62
2023/02/24 03:26:16;;;;;;;22.37;9.10;;;3.50;99.90;;;;;;5059974;28;20459;-62
2023/02/24 03:28:53;;;;;;;20.77;8.13;;;3.60;99.90;;;;;;5060578;28;20462;-62
2023/02/24 03:31:27;;;;;;;26.13;10.00;;;3.50;99.90;;;;;;5060950;28;20778;-62
2023/02/24 03:34:02;;;;;;;23.37;8.03;;;3.50;99.90;;;;;;5060247;28;20875;-62
2023/02/24 03:36:32;;;;;;;21.87;9.23;;;3.50;99.90;;;;;;5060496;28;20456;-62
2023/02/24 03:39:00;;;;;;;23.90;9.67;;;3.50;99.90;;;;;;5060682;28;20485;-61
2023/02/24 03:41:34;;;;;;;21.47;9.73;;;3.50;99.90;;;;;;5060628;28;20560;-62
2023/02/24 03:44:03;;;;;;;19.97;9.70;;;3.50;99.90;;;;;;5059816;28;20512;-62
2023/02/24 03:46:31;;;;;;;22.33;9.90;;;3.50;99.90;;;;;;5059364;28;20524;-62
2023/02/24 03:49:07;;;;;;;25.60;10.50;;;3.50;99.90;;;;;;5059858;28;20470;-62
2023/02/24 03:51:36;;;;;;;23.67;10.23;;;3.50;99.90;;;;;;5059474;28;20449;-62
2023/02/24 03:54:14;;;;;;;24.83;9.00;;;3.60;99.90;;;;;;5059604;28;20770;-61
2023/02/24 03:56:56;;;;;;;20.10;8.60;;;3.50;99.90;;;;;;5059517;28;20538;-62
2023/02/24 03:59:36;;;;;;;22.60;7.80;;;3.60;99.90;;;;;;5059963;28;20466;-61
2023/02/24 04:02:09;;;;;;;15.20;8.70;;;3.50;99.90;;;;;;5059450;28;20466;-62
2023/02/24 04:04:42;;;;;;;15.90;6.47;;;3.50;99.90;;;;;;5059505;28;20432;-62
2023/02/24 04:07:15;;;;;;;15.47;8.00;;;3.40;99.90;;;;;;5058458;28;20465;-62
2023/02/24 04:09:49;;;;;;;17.13;6.33;;;3.30;99.90;;;;;;5059306;28;20462;-62
2023/02/24 04:12:21;;;;;;;17.33;6.73;;;3.30;99.90;;;;;;5058795;28;20601;-61
2023/02/24 04:14:55;;;;;;;19.10;6.70;;;3.20;99.90;;;;;;5059381;28;20596;-62
2023/02/24 04:17:28;;;;;;;18.37;7.23;;;3.20;99.90;;;;;;5059209;28;20457;-62
2023/02/24 04:19:59;;;;;;;15.47;6.90;;;3.20;99.90;;;;;;5059485;28;20760;-62
2023/02/24 04:22:31;;;;;;;18.80;7.70;;;3.20;99.90;;;;;;5059168;28;20470;-62
2023/02/24 04:25:01;;;;;;;23.67;7.50;;;3.30;99.90;;;;;;5059141;28;20565;-62
2023/02/24 04:27:29;;;;;;;20.43;7.30;;;3.20;99.90;;;;;;5058782;28;20463;-62
2023/02/24 04:30:03;;;;;;;18.13;7.43;;;3.30;99.90;;;;;;5058409;28;20468;-62
2023/02/24 04:32:33;;;;;;;15.47;6.33;;;3.30;99.90;;;;;;5058421;28;20474;-62
2023/02/24 04:35:06;;;;;;;20.60;6.77;;;3.20;99.90;;;;;;5058907;28;20494;-62
2023/02/24 04:37:36;;;;;;;18.43;6.80;;;3.30;99.90;;;;;;5059146;28;20481;-62
2023/02/24 04:40:09;;;;;;;23.53;6.80;;;3.30;99.90;;;;;;5058790;28;20859;-62
2023/02/24 04:42:39;;;;;;;17.83;6.17;;;3.40;99.90;;;;;;5058971;28;20466;-62
2023/02/24 04:45:11;;;;;;;18.93;5.70;;;3.40;99.90;;;;;;5058866;28;20494;-62
2023/02/24 04:47:41;;;;;;;16.70;6.20;;;3.30;99.90;;;;;;5057036;28;20469;-62
2023/02/24 04:50:21;;;;;;;16.77;5.87;;;3.40;99.90;;;;;;5058550;28;20974;-62
2023/02/24 04:52:51;;;;;;;17.50;6.60;;;3.30;99.90;;;;;;5058182;28;20466;-62
2023/02/24 04:55:21;;;;;;;13.80;5.40;;;3.30;99.90;;;;;;5058645;28;20563;-62
2023/02/24 04:57:48;;;;;;;19.17;5.90;;;3.30;99.90;;;;;;5058075;28;20751;-62
2023/02/24 05:00:20;;;;;;;13.00;7.23;;;3.30;99.90;;;;;;5059024;28;20907;-62
2023/02/24 05:02:48;;;;;;;18.43;7.13;;;3.30;99.90;;;;;;5077882;28;20465;-61
2023/02/24 05:05:16;;;;;;;19.80;6.50;;;3.40;99.90;;;;;;5078590;28;20481;-62
2023/02/24 05:07:46;;;;;;;20.73;6.87;;;3.40;99.90;;;;;;5088502;28;20555;-62
2023/02/24 05:10:17;;;;;;;19.10;5.97;;;3.50;99.90;;;;;;5063109;28;20871;-62
2023/02/24 05:12:45;;;;;;;15.37;6.20;;;3.50;99.90;;;;;;5073507;28;20474;-62
2023/02/24 05:15:12;;;;;;;21.70;7.27;;;3.50;99.90;;;;;;5077340;28;20474;-61
2023/02/24 05:17:40;;;;;;;14.27;5.60;;;3.50;99.90;;;;;;5078219;28;20457;-61
2023/02/24 05:22:55;;;;;;;20.47;7.10;;;3.40;99.90;;;;;;5077327;28;20491;-62
2023/02/24 05:25:25;;;;;;;22.40;7.00;;;3.50;99.90;;;;;;5077884;28;20460;-62
2023/02/24 05:27:55;;;;;;;14.90;6.20;;;3.40;99.90;;;;;;5076410;28;20458;-61
2023/02/24 05:30:23;;;;;;;13.17;5.60;;;3.40;99.90;;;;;;5075908;28;20494;-61
2023/02/24 05:32:53;;;;;;;11.70;5.57;;;3.40;99.90;;;;;;5088972;28;20456;-61
2023/02/24 05:35:22;;;;;;;17.40;6.13;;;3.40;99.90;;;;;;5082028;28;20511;-62
2023/02/24 05:37:50;;;;;;;15.93;5.40;;;3.40;99.90;;;;;;5077328;28;20800;-62
2023/02/24 05:40:19;;;;;;;16.00;5.30;;;3.30;99.90;;;;;;5078365;28;20560;-61
2023/02/24 05:42:48;;;;;;;12.40;5.90;;;3.30;99.90;;;;;;5077792;28;20486;-62
2023/02/24 05:45:17;;;;;;;15.03;5.10;;;3.30;99.90;;;;;;5066823;28;20908;-62
2023/02/24 05:47:46;;;;;;;13.40;4.60;;;3.30;99.90;;;;;;5070717;28;20848;-61
2023/02/24 05:50:13;;;;;;;16.23;4.80;;;3.30;99.90;;;;;;5074586;28;20473;-62
2023/02/24 05:52:44;;;;;;;8.93;3.93;;;3.30;99.90;;;;;;5080747;28;20521;-62
2023/02/24 05:55:12;;;;;;;12.20;4.77;;;3.30;99.90;;;;;;5069452;28;20493;-62
2023/02/24 05:57:40;;;;;;;11.60;4.50;;;3.30;99.90;;;;;;5073554;28;20478;-61
2023/02/24 06:00:14;;;;;;;10.83;4.87;;;3.30;99.90;;;;;;5067596;28;20473;-62
2023/02/24 06:02:48;;;;;;;8.90;3.70;;;3.30;99.90;;;;;;5068896;28;20464;-62
2023/02/24 06:05:28;;;;;;;14.03;3.67;;;3.40;99.90;;;;;;5069965;28;20547;-62
2023/02/24 06:08:10;;;;;;;11.50;4.20;;;3.30;99.90;;;;;;5076356;28;20883;-62
2023/02/24 06:10:39;;;;;;;12.37;4.10;;;3.20;99.90;;;;;;5077710;28;20780;-62
2023/02/24 06:13:09;;;;;;;9.30;3.87;;;3.20;99.90;;;;;;5075932;28;20457;-61
2023/02/24 06:15:37;;;;;;;11.83;4.13;;;3.20;99.90;;;;;;5076088;28;20966;-62
2023/02/24 06:18:06;;;;;;;7.60;3.80;;;3.30;99.90;;;;;;5075297;28;20791;-62
2023/02/24 06:20:33;;;;;;;11.07;4.27;;;3.30;99.90;;;;;;5073633;28;20468;-62
2023/02/24 06:23:03;;;;;;;12.80;4.40;;;3.40;99.90;;;;;;5056049;28;20932;-62
2023/02/24 06:25:32;;;;;;;9.67;3.80;;;3.50;99.90;;;;;;5056719;28;20812;-62
2023/02/24 06:28:00;;;;;;;14.70;4.03;;;3.50;99.90;;;;;;5074941;28;20466;-62
2023/02/24 06:30:28;;;;;;;17.87;4.37;;;3.50;99.90;;;;;;5076911;28;20462;-61
2023/02/24 06:32:56;;;;;;;18.20;4.33;;;3.60;99.90;;;;;;5079725;28;20461;-61
2023/02/24 06:35:24;;;;;;;11.30;4.27;;;3.70;99.90;;;;;;5080470;28;20532;-62
2023/02/24 06:37:54;;;;;;;11.33;5.53;;;3.70;99.90;;;;;;5077697;28;20866;-63
2023/02/24 06:40:22;;;;;;;13.93;5.07;;;3.70;99.90;;;;;;5073502;28;20472;-63
2023/02/24 06:42:52;;;;;;;14.27;5.27;;;3.70;99.90;;;;;;5068430;28;20986;-62
2023/02/24 06:45:20;;;;;;;20.10;6.07;;;3.60;99.90;;;;;;5073930;28;20658;-63
2023/02/24 06:47:47;;;;;;;14.47;6.63;;;3.70;99.90;;;;;;5073395;28;20469;-62
2023/02/24 06:50:18;;;;;;;13.10;5.53;;;3.60;99.90;;;;;;5074999;28;20457;-63
2023/02/24 06:52:46;;;;;;;19.37;8.23;;;3.50;99.90;;;;;;5076359;28;20465;-63
2023/02/24 06:55:25;;;;;;;16.97;6.23;;;3.60;99.90;;;;;;5076710;28;20885;-62
2023/02/24 06:57:55;;;;;;;14.00;6.10;;;3.70;99.90;;;;;;5078856;28;20461;-63
2023/02/24 07:00:35;;;;;;;12.70;5.57;;;3.60;99.90;;;;;;5078352;28;20511;-62
2023/02/24 07:03:14;;;;;;;19.00;6.20;;;3.60;99.90;;;;;;5078739;28;20472;-62
2023/02/24 07:05:49;;;;;;;19.07;6.47;;;3.70;99.90;;;;;;5078512;28;20482;-62
2023/02/24 07:08:17;;;;;;;13.47;5.93;;;3.80;99.90;;;;;;5079212;28;20457;-63
2023/02/24 07:10:47;;;;;;;16.83;6.73;;;3.80;99.90;;;;;;5078938;28;20469;-62
2023/02/24 07:13:14;;;;;;;13.97;6.80;;;3.70;99.90;;;;;;5078747;28;20881;-62
2023/02/24 07:15:47;;;;;;;17.67;6.33;;;3.80;99.90;;;;;;5078976;28;20838;-62
2023/02/24 07:18:15;;;;;;;17.73;7.67;;;3.70;99.90;;;;;;5077816;28;20471;-62
2023/02/24 07:20:45;;;;;;;13.27;6.13;;;3.70;99.90;;;;;;5073705;28;20476;-62
2023/02/24 07:23:14;;;;;;;15.40;5.97;;;3.70;99.90;;;;;;5075420;28;20549;-62
2023/02/24 07:25:42;;;;;;;21.83;6.20;;;3.70;99.90;;;;;;5059590;28;20494;-62
2023/02/24 07:28:10;;;;;;;19.50;5.53;;;3.60;99.90;;;;;;5060042;28;20520;-63
2023/02/24 07:30:39;;;;;;;15.07;6.13;;;3.70;99.90;;;;;;5060019;28;20557;-63
2023/02/24 07:33:07;;;;;;;20.20;6.27;;;3.60;99.90;;;;;;5059727;28;20529;-62
2023/02/24 07:35:35;;;;;;;16.10;6.20;;;3.70;99.90;;;;;;5071687;28;20492;-62
2023/02/24 07:38:04;;;;;;;13.80;5.30;;;3.70;99.90;;;;;;5078913;28;20461;-63
2023/02/24 07:40:32;;;;;;;15.43;5.83;;;3.70;99.90;;;;;;5078930;28;20480;-63
2023/02/24 07:43:00;;;;;;;18.40;5.40;;;3.70;99.90;;;;;;5078298;28;20454;-63
2023/02/24 07:45:28;;;;;;;14.10;6.03;;;3.80;99.90;;;;;;5078862;28;20906;-63
2023/02/24 07:47:55;;;;;;;18.97;6.83;;;3.70;99.90;;;;;;5076834;28;20825;-63
2023/02/24 07:50:23;;;;;;;14.57;5.30;;;3.60;99.90;;;;;;5076432;28;20528;-63
2023/02/24 07:52:50;;;;;;;14.13;6.50;;;3.70;99.90;;;;;;5073357;28;20454;-63
2023/02/24 07:55:19;;;;;;;14.30;5.03;;;3.70;99.90;;;;;;5078570;28;20468;-64
2023/02/24 07:57:47;;;;;;;17.53;6.37;;;3.80;99.90;;;;;;5078123;28;20462;-63
2023/02/24 08:00:18;;;;;;;15.57;4.80;;;3.80;99.90;;;;;;5078599;28;20449;-63
2023/02/24 08:02:47;;;;;;;13.83;6.03;;;3.80;99.90;;;;;;5078427;28;20461;-63
2023/02/24 08:05:15;;;;;;;8.43;5.13;;;3.90;99.90;;;;;;5078234;28;20481;-63
2023/02/24 08:07:42;;;;;;;11.70;6.30;;;3.90;99.90;;;;;;5078326;28;20890;-64
2023/02/24 08:10:12;;;;;;;13.10;5.60;;;3.90;99.90;;;;;;5077959;28;20540;-63
2023/02/24 08:12:42;;;;;;;13.23;5.40;;;4.00;99.90;;;;;;5077132;28;20787;-63
2023/02/24 08:15:22;;;;;;;16.63;6.67;;;4.10;99.90;;;;;;5076974;28;20458;-64
2023/02/24 08:17:51;;;;;;;9.43;5.13;;;3.90;1.00;;;;;;5076588;28;20865;-64
2023/02/24 08:20:23;;;;;;;19.33;6.63;;;4.00;1.00;;;;;;5075746;28;20460;-64
2023/02/24 08:22:52;;;;;;;13.37;5.50;;;4.00;99.90;;;;;;5078011;28;20450;-64
2023/02/24 08:25:21;;;;;;;14.20;5.20;;;4.10;99.90;;;;;;5075467;28;20452;-64
2023/02/24 08:27:55;;;;;;;15.23;5.47;;;4.10;45.00;;;;;;5078218;28;20487;-64
2023/02/24 08:30:24;;;;;;;16.50;5.00;;;4.10;99.90;;;;;;5076864;28;20478;-64
2023/02/24 08:32:56;;;;;;;16.40;5.00;;;4.10;99.90;;;;;;5076409;28;20461;-64
2023/02/24 08:35:30;;;;;;;17.83;5.40;;;4.00;52.00;;;;;;5075443;28;20496;-64
2023/02/24 08:38:03;;;;;;;10.63;5.40;;;4.00;7.60;;;;;;5075357;28;20446;-64
2023/02/24 08:40:48;;;;;;;12.03;5.60;;;4.00;17.80;;;;;;5056240;28;20918;-64
2023/02/24 08:43:31;;;;;;;16.10;5.27;;;3.90;1.00;;;;;;5056949;28;20462;-64
2023/02/24 08:46:02;;;;;;;14.77;5.57;;;3.90;1.00;;;;;;5058062;28;20886;-64
2023/02/24 08:48:36;;;;;;;10.73;4.83;;;4.00;12.80;;;;;;5057332;28;20465;-65
2023/02/24 08:51:08;;;;;;;16.03;6.03;;;4.10;12.30;;;;;;5063941;28;20767;-64
2023/02/24 08:53:39;;;;;;;11.83;5.07;;;4.10;1.00;;;;;;5076766;28;20432;-65
2023/02/24 08:56:10;;;;;;;11.10;4.90;;;4.10;1.00;;;;;;5077370;28;20974;-65
2023/02/24 08:58:45;;;;;;;14.27;5.90;;;4.20;1.00;;;;;;5076938;28;20465;-65
2023/02/24 09:01:18;;;;;;;11.07;5.10;;;4.30;1.00;;;;;;5077459;28;20563;-65
2023/02/24 09:03:46;;;;;;;12.60;5.13;;;4.40;1.00;;;;;;5076727;28;20468;-65
2023/02/24 09:06:16;;;;;;;13.77;5.77;;;4.40;1.00;;;;;;5076338;28;20936;-64
2023/02/24 09:08:46;;;;;;;21.03;6.53;;;4.30;1.00;;;;;;5075821;28;20465;-65
2023/02/24 09:11:15;;;;;;;14.50;6.07;;;4.20;1.00;;;;;;5074883;28;20468;-65
2023/02/24 09:13:53;;;;;;;10.47;5.60;;;4.20;1.00;;;;;;5074913;28;20460;-65
2023/02/24 09:16:22;;;;;;;14.87;6.90;;;4.20;1.00;;;;;;5075058;28;20754;-65
2023/02/24 09:19:39;;;;;;;20.37;7.40;;;4.20;1.00;;;;;;5075461;28;20457;-65
2023/02/24 09:22:04;;;;;;;10.73;5.17;;;4.20;1.00;;;;;;5075407;28;20450;-65
2023/02/24 09:24:32;;;;;;;13.00;6.93;;;4.30;1.00;;;;;;5075793;28;20465;-65
2023/02/24 09:27:00;;;;;;;13.37;6.57;;;4.30;1.00;;;;;;5076258;28;20852;-65
2023/02/24 09:29:34;;;;;;;22.07;7.33;;;4.40;1.00;;;;;;5076342;28;20447;-65
2023/02/24 09:32:05;;;;;;;12.73;5.37;;;4.50;1.00;;;;;;5076398;28;20470;-65
2023/02/24 09:34:34;;;;;;;14.23;5.80;;;4.50;1.00;;;;;;5075594;28;20929;-65
2023/02/24 09:37:02;;;;;;;17.80;5.87;;;4.40;1.00;;;;;;5075583;28;20489;-65
2023/02/24 09:40:12;;;;;;;14.20;5.37;;;4.40;1.00;;;;;;5075861;28;20523;-65
2023/02/24 09:42:31;;;;;;;12.73;5.17;;;4.30;1.00;;;;;;5076405;28;20436;-65
2023/02/24 09:45:10;;;;;;;12.27;6.00;;;4.30;1.00;;;;;;5075814;28;20805;-65
2023/02/24 09:47:55;;;;;;;15.70;7.27;;;4.50;1.00;;;;;;5076272;28;20448;-65
2023/02/24 09:50:36;;;;;;;17.87;5.07;;;4.40;1.00;;;;;;5074697;28;20472;-65
2023/02/24 09:53:16;;;;;;;11.83;5.70;;;4.50;1.00;;;;;;5077333;28;20460;-66
2023/02/24 09:55:59;;;;;;;10.63;5.47;;;4.50;1.00;;;;;;5076136;28;20527;-65
2023/02/24 09:58:37;;;;;;;10.77;5.43;;;4.40;1.00;;;;;;5077126;28;20886;-65
2023/02/24 10:01:22;;;;;;;10.20;4.60;;;4.50;1.00;;;;;;5077471;28;20457;-65
2023/02/24 10:04:03;;;;;;;13.40;4.40;;;4.60;1.00;;;;;;5076680;28;20439;-65
2023/02/24 10:06:35;;;;;;;9.93;4.40;;;4.60;1.00;;;;;;5080835;28;20487;-65
2023/02/24 10:09:11;;;;;;;13.83;4.80;;;4.50;1.00;;;;;;5080873;28;20445;-65
2023/02/24 10:11:52;;;;;;;16.20;5.90;;;4.50;1.00;;;;;;5080467;28;20456;-65
2023/02/24 10:14:28;;;;;;;13.87;6.50;;;4.50;1.00;;;;;;5080318;28;20572;-65
2023/02/24 10:19:42;;;;;;;12.70;4.97;;;4.50;1.00;;;;;;5078523;28;20469;-65
2023/02/24 10:22:26;;;;;;;12.23;5.13;;;4.50;1.00;;;;;;5080359;28;20461;-65
2023/02/24 10:25:09;;;;;;;10.67;4.00;;;4.60;1.00;;;;;;5080716;28;20871;-65
2023/02/24 10:27:51;;;;;;;14.80;5.10;;;4.50;1.00;;;;;;5079346;28;20457;-65
2023/02/24 10:30:39;;;;;;;13.27;4.90;;;4.50;1.00;;;;;;5079842;28;20465;-64
2023/02/24 10:33:17;;;;;;;10.90;4.70;;;4.40;1.00;;;;;;5061179;28;20462;-64
2023/02/24 10:35:45;;;;;;;12.47;4.87;;;4.40;1.00;;;;;;5069456;28;20459;-65
2023/02/24 10:38:12;;;;;;;9.93;4.33;;;4.30;1.00;;;;;;5078192;28;20790;-64
2023/02/24 10:40:55;;;;;;;12.83;4.23;;;4.40;1.00;;;;;;5077704;28;20457;-64
2023/02/24 10:43:28;;;;;;;10.57;3.97;;;4.40;1.00;;;;;;5078026;28;20909;-65
2023/02/24 10:46:04;;;;;;;7.70;4.00;;;4.20;1.00;;;;;;5078363;28;20491;-64
2023/02/24 10:48:37;;;;;;;15.67;4.10;;;4.30;1.00;;;;;;5078081;28;20532;-66
2023/02/24 10:51:17;;;;;;;12.60;4.40;;;4.30;1.00;;;;;;5077460;28;20473;-65
2023/02/24 10:53:52;;;;;;;5.20;3.20;;;4.20;1.00;;;;;;5078122;28;20474;-64
2023/02/24 10:56:40;;;;;;;12.27;4.37;;;4.20;1.00;;;;;;5078872;28;20551;-64
2023/02/24 10:59:47;;;;;;;7.47;4.30;;;4.00;1.00;;;;;;5078334;28;20461;-64
2023/02/24 11:02:28;;;;;;;8.93;3.60;;;4.00;1.00;;;;;;5078270;28;20886;-64
2023/02/24 11:05:23;;;;;;;9.33;3.77;;;4.10;1.00;;;;;;5078196;28;20465;-65
2023/02/24 11:07:54;;;;;;;10.50;3.70;;;4.10;1.00;;;;;;5078507;28;20462;-65
2023/02/24 11:10:31;;;;;;;13.73;4.20;;;4.10;1.00;;;;;;5079467;28;20472;-65
2023/02/24 11:18:33;;;;;;;12.70;5.00;;;3.80;1.00;;;;;;5079305;28;20574;-63
2023/02/24 11:21:04;;;;;;;14.07;5.43;;;3.70;52.30;;;;;;5067357;28;20563;-61
2023/02/24 11:23:35;;;;;;;13.43;5.47;;;3.80;99.90;;;;;;5060305;28;20505;-63
2023/02/24 11:26:11;;;;;;;14.50;5.10;;;3.70;99.90;;;;;;5059496;28;20469;-62
2023/02/24 11:28:56;;;;;;;10.93;5.07;;;3.60;99.90;;;;;;5058851;28;20436;-61
2023/02/24 11:31:40;;;;;;;13.00;6.70;;;3.60;99.90;;;;;;5058080;28;20488;-63
2023/02/24 11:34:11;;;;;;;12.67;6.60;;;3.50;1.00;;;;;;5061265;28;20886;-62
2023/02/24 11:36:48;;;;;;;11.77;6.30;;;3.50;1.00;;;;;;5078893;28;20472;-63
2023/02/24 11:39:34;;;;;;;10.17;6.87;;;3.60;1.00;;;;;;5078887;28;20961;-62
2023/02/24 11:42:09;;;;;;;9.77;6.50;;;3.60;1.00;;;;;;5078546;28;20465;-61
2023/02/24 11:44:45;;;;;;;14.13;7.17;;;3.70;99.90;;;;;;5078584;28;20461;-61
2023/02/24 11:47:16;;;;;;;15.07;8.30;;;3.80;99.90;;;;;;5078636;28;20465;-62
2023/02/24 11:49:48;;;;;;;15.40;8.87;;;3.80;99.90;;;;;;5077105;28;20540;-62
2023/02/24 11:52:22;;;;;;;19.07;8.87;;;3.80;99.90;;;;;;5075723;28;20483;-62
2023/02/24 11:54:54;;;;;;;14.83;8.70;;;3.80;99.90;;;;;;5075721;28;20471;-62
2023/02/24 11:57:41;;;;;;;12.73;8.80;;;3.70;99.90;;;;;;5076041;28;20495;-62
2023/02/24 12:00:18;;;;;;;15.70;9.50;;;3.60;99.90;;;;;;5076655;28;20467;-63
2023/02/24 12:02:51;;;;;;;19.70;9.07;;;3.70;1.00;;;;;;5077173;28;20454;-62
2023/02/24 12:05:21;;;;;;;16.20;9.67;;;3.70;1.00;;;;;;5075782;28;20488;-62
2023/02/24 12:07:52;;;;;;;20.03;9.27;;;3.80;1.00;;;;;;5073669;28;20449;-63
2023/02/24 12:10:23;;;;;;;16.87;9.80;;;3.80;1.00;;;;;;5076348;28;20454;-62
2023/02/24 12:12:58;;;;;;;13.27;8.83;;;3.80;99.90;;;;;;5073934;28;20510;-62
2023/02/24 12:15:30;;;;;;;19.50;8.90;;;3.60;99.90;;;;;;5076025;28;20473;-62
2023/02/24 12:18:10;;;;;;;16.50;8.30;;;3.60;1.00;;;;;;5075172;28;20492;-63
2023/02/24 12:20:43;;;;;;;11.97;8.13;;;3.60;1.00;;;;;;5075954;28;20495;-62
2023/02/24 12:23:17;;;;;;;12.43;8.33;;;3.60;1.00;;;;;;5074495;28;20461;-63
2023/02/24 12:25:57;;;;;;;22.30;9.53;;;3.50;1.00;;;;;;5072924;28;20453;-62
2023/02/24 12:28:39;;;;;;;14.43;9.27;;;3.50;1.00;;;;;;5072310;28;20449;-62
2023/02/24 12:31:18;;;;;;;20.07;8.33;;;3.40;1.00;;;;;;5074307;28;20458;-64
2023/02/24 12:33:55;;;;;;;15.27;8.50;;;3.50;1.00;;;;;;5075239;28;20507;-64
2023/02/24 12:36:44;;;;;;;13.40;8.60;;;3.40;1.00;;;;;;5074942;28;20460;-65
2023/02/24 12:39:16;;;;;;;12.47;8.33;;;3.40;1.00;;;;;;5075281;28;20825;-64
2023/02/24 12:42:06;;;;;;;13.10;8.30;;;3.30;1.00;;;;;;5076287;28;20462;-64
2023/02/24 12:44:41;;;;;;;16.97;9.37;;;3.10;1.00;;;;;;5074776;28;20520;-64
2023/02/24 12:47:12;;;;;;;16.40;9.87;;;3.10;1.00;;;;;;5076111;28;20550;-65
2023/02/24 12:50:05;;;;;;;19.07;10.60;;;3.10;99.90;;;;;;5075893;28;20461;-64
2023/02/24 12:52:46;;;;;;;13.00;9.40;;;3.20;1.00;;;;;;5074567;28;20462;-64
2023/02/24 12:55:21;;;;;;;10.73;9.53;;;3.20;1.00;;;;;;5074580;28;20734;-65
2023/02/24 12:57:58;;;;;;;15.13;11.17;;;3.20;1.00;;;;;;5077267;28;20956;-65
2023/02/24 13:00:41;;;;;;;16.83;11.43;;;3.20;1.00;;;;;;5077360;28;20745;-64
2023/02/24 13:03:29;;;;;;;20.27;10.73;;;3.30;1.00;;;;;;5077181;28;20461;-65
2023/02/24 13:06:05;;;;;;;18.87;10.87;;;3.40;65.60;;;;;;5074991;28;20456;-66
2023/02/24 13:08:42;;;;;;;17.03;11.60;;;3.40;1.00;;;;;;5077286;28;20882;-64
2023/02/24 13:11:25;;;;;;;13.67;11.03;;;3.30;1.00;;;;;;5077230;28;20452;-64
2023/02/24 13:13:59;;;;;;;16.63;11.20;;;3.30;1.00;;;;;;5076740;28;20964;-65
2023/02/24 13:16:31;;;;;;;18.40;11.87;;;3.40;1.00;;;;;;5077092;28;20452;-64
2023/02/24 13:19:14;;;;;;;16.33;11.97;;;3.40;1.00;;;;;;5075086;28;20456;-65
2023/02/24 13:22:01;;;;;;;16.80;12.10;;;3.40;1.00;;;;;;5075519;28;20526;-64
2023/02/24 13:24:30;;;;;;;12.90;10.80;;;3.50;1.00;;;;;;5076456;28;20462;-64
2023/02/24 13:27:22;;;;;;;21.27;12.90;;;3.40;1.00;;;;;;5077126;28;20454;-64
2023/02/24 13:29:51;;;;;;;16.07;12.33;;;3.50;41.60;;;;;;5076334;28;20465;-65